マガダン の空港の天気 - METARとTAF

マガダン・ソコル空港 ( UHMM / GDX ) - ロシア マガダン
飛行場実況気象(Metar)
観測時間01/17 17:00 +11 (01/17 06:00 UTC)
風向・風速北 3m/s
視程10km以上
天気現象
なし
気温-16℃
湿度46%
気圧1024hPa
METARUHMM 170600Z 36003MPS 9999 NSC M16/M25 Q1024 R10/85//55 NOSIG RMK QFE753
過去の天気等 Google飛行場航空写真 Wunderground天気予報

過去48時間のMETAR

飛行場予報(TAF)
発表時間: 1/17 15:55 +11 (1/17 04:55 UTC)
予報対象時間: 17日17時 +11 ~ 18日23時 +11
風向・風速北北東 3m/s
視程10km以上
なし
TAF UHMM 170455Z 1706/1812 03003MPS 9999 NSC